sensor_id;sensor_type;location;lat;lon;timestamp;P1;durP1;ratioP1;P2;durP2;ratioP2
42334;SDS011;27986;42.700;24.178;2022-10-31T00:01:27;5.63;;;2.30;;
42334;SDS011;27986;42.700;24.178;2022-10-31T00:03:57;6.28;;;2.67;;
42334;SDS011;27986;42.700;24.178;2022-10-31T00:06:23;9.68;;;3.00;;
42334;SDS011;27986;42.700;24.178;2022-10-31T00:08:53;5.72;;;2.67;;
42334;SDS011;27986;42.700;24.178;2022-10-31T00:11:24;6.47;;;2.83;;
42334;SDS011;27986;42.700;24.178;2022-10-31T00:13:50;6.05;;;2.60;;
42334;SDS011;27986;42.700;24.178;2022-10-31T00:16:16;5.45;;;2.65;;
42334;SDS011;27986;42.700;24.178;2022-10-31T00:18:43;8.05;;;3.25;;
42334;SDS011;27986;42.700;24.178;2022-10-31T00:21:09;9.52;;;3.00;;
42334;SDS011;27986;42.700;24.178;2022-10-31T00:23:35;7.82;;;2.83;;
42334;SDS011;27986;42.700;24.178;2022-10-31T00:26:01;4.90;;;2.13;;
42334;SDS011;27986;42.700;24.178;2022-10-31T00:28:27;10.55;;;3.40;;
42334;SDS011;27986;42.700;24.178;2022-10-31T00:30:57;3.97;;;2.03;;
42334;SDS011;27986;42.700;24.178;2022-10-31T00:33:26;7.63;;;3.13;;
42334;SDS011;27986;42.700;24.178;2022-10-31T00:35:52;4.75;;;2.22;;
42334;SDS011;27986;42.700;24.178;2022-10-31T00:38:18;3.72;;;1.30;;
42334;SDS011;27986;42.700;24.178;2022-10-31T00:40:43;3.83;;;1.85;;
42334;SDS011;27986;42.700;24.178;2022-10-31T00:43:08;4.25;;;1.95;;
42334;SDS011;27986;42.700;24.178;2022-10-31T00:45:34;3.55;;;1.95;;
42334;SDS011;27986;42.700;24.178;2022-10-31T00:47:59;5.28;;;1.98;;
42334;SDS011;27986;42.700;24.178;2022-10-31T00:50:25;4.82;;;1.63;;
42334;SDS011;27986;42.700;24.178;2022-10-31T00:52:50;3.63;;;1.85;;
42334;SDS011;27986;42.700;24.178;2022-10-31T00:55:16;2.97;;;1.60;;
42334;SDS011;27986;42.700;24.178;2022-10-31T00:57:41;4.57;;;1.27;;
42334;SDS011;27986;42.700;24.178;2022-10-31T01:00:07;4.30;;;2.13;;
42334;SDS011;27986;42.700;24.178;2022-10-31T01:02:33;5.18;;;2.30;;
42334;SDS011;27986;42.700;24.178;2022-10-31T01:04:58;9.75;;;3.35;;
42334;SDS011;27986;42.700;24.178;2022-10-31T01:07:24;4.50;;;2.40;;
42334;SDS011;27986;42.700;24.178;2022-10-31T01:09:49;3.63;;;1.92;;
42334;SDS011;27986;42.700;24.178;2022-10-31T01:12:14;5.57;;;1.67;;
42334;SDS011;27986;42.700;24.178;2022-10-31T01:14:43;4.03;;;1.95;;
42334;SDS011;27986;42.700;24.178;2022-10-31T01:17:10;4.78;;;1.95;;
42334;SDS011;27986;42.700;24.178;2022-10-31T01:19:36;5.22;;;2.13;;
42334;SDS011;27986;42.700;24.178;2022-10-31T01:22:01;7.03;;;2.92;;
42334;SDS011;27986;42.700;24.178;2022-10-31T01:24:27;7.45;;;2.78;;
42334;SDS011;27986;42.700;24.178;2022-10-31T01:26:52;12.20;;;3.72;;
42334;SDS011;27986;42.700;24.178;2022-10-31T01:29:17;12.95;;;3.20;;
42334;SDS011;27986;42.700;24.178;2022-10-31T01:31:43;7.93;;;3.22;;
42334;SDS011;27986;42.700;24.178;2022-10-31T01:34:10;6.10;;;2.97;;
42334;SDS011;27986;42.700;24.178;2022-10-31T01:36:39;8.13;;;3.58;;
42334;SDS011;27986;42.700;24.178;2022-10-31T01:39:05;10.02;;;3.30;;
42334;SDS011;27986;42.700;24.178;2022-10-31T01:41:39;11.00;;;4.07;;
42334;SDS011;27986;42.700;24.178;2022-10-31T01:46:40;7.28;;;3.20;;
42334;SDS011;27986;42.700;24.178;2022-10-31T01:49:13;11.05;;;3.92;;
42334;SDS011;27986;42.700;24.178;2022-10-31T01:51:51;6.10;;;2.63;;
42334;SDS011;27986;42.700;24.178;2022-10-31T01:54:21;21.25;;;3.47;;
42334;SDS011;27986;42.700;24.178;2022-10-31T01:56:52;7.07;;;4.00;;
42334;SDS011;27986;42.700;24.178;2022-10-31T01:59:20;7.78;;;3.60;;
42334;SDS011;27986;42.700;24.178;2022-10-31T02:01:47;7.18;;;2.92;;
42334;SDS011;27986;42.700;24.178;2022-10-31T02:04:15;7.93;;;2.85;;
42334;SDS011;27986;42.700;24.178;2022-10-31T02:09:16;5.60;;;2.72;;
42334;SDS011;27986;42.700;24.178;2022-10-31T02:11:48;5.45;;;2.53;;
42334;SDS011;27986;42.700;24.178;2022-10-31T02:14:17;12.32;;;3.25;;
42334;SDS011;27986;42.700;24.178;2022-10-31T02:16:43;5.18;;;2.13;;
42334;SDS011;27986;42.700;24.178;2022-10-31T02:19:08;4.65;;;2.65;;
42334;SDS011;27986;42.700;24.178;2022-10-31T02:29:40;4.32;;;2.25;;
42334;SDS011;27986;42.700;24.178;2022-10-31T02:32:02;7.43;;;3.13;;
42334;SDS011;27986;42.700;24.178;2022-10-31T02:34:54;6.20;;;2.78;;
42334;SDS011;27986;42.700;24.178;2022-10-31T02:37:33;6.50;;;3.03;;
42334;SDS011;27986;42.700;24.178;2022-10-31T02:45:39;6.88;;;2.70;;
42334;SDS011;27986;42.700;24.178;2022-10-31T02:48:12;8.13;;;3.13;;
42334;SDS011;27986;42.700;24.178;2022-10-31T02:50:43;6.30;;;3.33;;
42334;SDS011;27986;42.700;24.178;2022-10-31T02:53:17;5.60;;;2.53;;
42334;SDS011;27986;42.700;24.178;2022-10-31T02:58:31;6.38;;;2.95;;
42334;SDS011;27986;42.700;24.178;2022-10-31T03:01:14;8.00;;;3.08;;
42334;SDS011;27986;42.700;24.178;2022-10-31T03:12:36;4.05;;;2.25;;
42334;SDS011;27986;42.700;24.178;2022-10-31T03:15:25;3.85;;;1.80;;
42334;SDS011;27986;42.700;24.178;2022-10-31T03:18:04;5.35;;;2.10;;
42334;SDS011;27986;42.700;24.178;2022-10-31T03:20:56;15.77;;;2.85;;
42334;SDS011;27986;42.700;24.178;2022-10-31T03:23:25;6.30;;;2.92;;
42334;SDS011;27986;42.700;24.178;2022-10-31T03:25:52;6.53;;;2.22;;
42334;SDS011;27986;42.700;24.178;2022-10-31T03:28:22;9.70;;;2.45;;
42334;SDS011;27986;42.700;24.178;2022-10-31T03:30:53;6.18;;;2.58;;
42334;SDS011;27986;42.700;24.178;2022-10-31T03:33:22;7.32;;;1.92;;
42334;SDS011;27986;42.700;24.178;2022-10-31T03:35:52;7.72;;;2.03;;
42334;SDS011;27986;42.700;24.178;2022-10-31T03:38:21;4.28;;;2.28;;
42334;SDS011;27986;42.700;24.178;2022-10-31T03:40:47;4.20;;;2.30;;
42334;SDS011;27986;42.700;24.178;2022-10-31T03:43:19;5.72;;;2.17;;
42334;SDS011;27986;42.700;24.178;2022-10-31T03:45:51;5.63;;;2.45;;
42334;SDS011;27986;42.700;24.178;2022-10-31T03:48:18;7.60;;;2.05;;
42334;SDS011;27986;42.700;24.178;2022-10-31T03:59:06;5.53;;;3.13;;
42334;SDS011;27986;42.700;24.178;2022-10-31T04:01:39;7.63;;;2.28;;
42334;SDS011;27986;42.700;24.178;2022-10-31T04:04:09;6.00;;;3.05;;
42334;SDS011;27986;42.700;24.178;2022-10-31T04:06:36;6.18;;;3.30;;
42334;SDS011;27986;42.700;24.178;2022-10-31T04:09:05;6.35;;;3.10;;
42334;SDS011;27986;42.700;24.178;2022-10-31T04:11:38;5.47;;;2.10;;
42334;SDS011;27986;42.700;24.178;2022-10-31T04:14:08;7.68;;;2.85;;
42334;SDS011;27986;42.700;24.178;2022-10-31T04:16:37;12.52;;;3.58;;
42334;SDS011;27986;42.700;24.178;2022-10-31T04:19:06;14.52;;;3.72;;
42334;SDS011;27986;42.700;24.178;2022-10-31T04:21:32;12.38;;;5.38;;
42334;SDS011;27986;42.700;24.178;2022-10-31T04:23:57;7.47;;;3.90;;
42334;SDS011;27986;42.700;24.178;2022-10-31T04:26:23;13.30;;;3.63;;
42334;SDS011;27986;42.700;24.178;2022-10-31T04:28:49;12.63;;;3.60;;
42334;SDS011;27986;42.700;24.178;2022-10-31T04:31:14;7.88;;;4.15;;
42334;SDS011;27986;42.700;24.178;2022-10-31T04:33:40;7.13;;;2.97;;
42334;SDS011;27986;42.700;24.178;2022-10-31T04:36:05;5.38;;;1.73;;
42334;SDS011;27986;42.700;24.178;2022-10-31T04:38:31;3.70;;;1.20;;
42334;SDS011;27986;42.700;24.178;2022-10-31T04:40:56;7.57;;;2.15;;
42334;SDS011;27986;42.700;24.178;2022-10-31T04:43:22;5.57;;;2.33;;
42334;SDS011;27986;42.700;24.178;2022-10-31T04:45:48;4.82;;;1.85;;
42334;SDS011;27986;42.700;24.178;2022-10-31T04:48:14;6.57;;;3.05;;
42334;SDS011;27986;42.700;24.178;2022-10-31T04:50:39;3.30;;;1.63;;
42334;SDS011;27986;42.700;24.178;2022-10-31T04:53:05;7.60;;;1.98;;
42334;SDS011;27986;42.700;24.178;2022-10-31T04:55:31;5.60;;;2.20;;
42334;SDS011;27986;42.700;24.178;2022-10-31T04:57:56;12.05;;;3.35;;
42334;SDS011;27986;42.700;24.178;2022-10-31T05:00:22;16.98;;;6.28;;
42334;SDS011;27986;42.700;24.178;2022-10-31T05:02:51;14.05;;;6.80;;
42334;SDS011;27986;42.700;24.178;2022-10-31T05:05:20;15.20;;;7.00;;
42334;SDS011;27986;42.700;24.178;2022-10-31T05:07:47;12.23;;;4.95;;
42334;SDS011;27986;42.700;24.178;2022-10-31T05:10:24;21.38;;;5.90;;
42334;SDS011;27986;42.700;24.178;2022-10-31T05:12:53;12.77;;;6.47;;
42334;SDS011;27986;42.700;24.178;2022-10-31T05:15:20;8.25;;;4.10;;
42334;SDS011;27986;42.700;24.178;2022-10-31T05:17:47;13.13;;;5.15;;
42334;SDS011;27986;42.700;24.178;2022-10-31T05:20:13;9.80;;;4.28;;
42334;SDS011;27986;42.700;24.178;2022-10-31T05:22:44;7.65;;;3.95;;
42334;SDS011;27986;42.700;24.178;2022-10-31T05:25:11;17.92;;;6.68;;
42334;SDS011;27986;42.700;24.178;2022-10-31T05:27:40;25.02;;;9.25;;
42334;SDS011;27986;42.700;24.178;2022-10-31T05:30:09;10.32;;;3.78;;
42334;SDS011;27986;42.700;24.178;2022-10-31T05:32:39;8.35;;;3.55;;
42334;SDS011;27986;42.700;24.178;2022-10-31T05:35:06;17.50;;;5.25;;
42334;SDS011;27986;42.700;24.178;2022-10-31T05:37:33;15.15;;;7.38;;
42334;SDS011;27986;42.700;24.178;2022-10-31T05:40:00;20.77;;;8.50;;
42334;SDS011;27986;42.700;24.178;2022-10-31T05:42:26;25.30;;;10.05;;
42334;SDS011;27986;42.700;24.178;2022-10-31T05:44:51;13.45;;;7.43;;
42334;SDS011;27986;42.700;24.178;2022-10-31T05:47:17;17.17;;;6.10;;
42334;SDS011;27986;42.700;24.178;2022-10-31T05:49:42;12.35;;;4.28;;
42334;SDS011;27986;42.700;24.178;2022-10-31T05:52:09;10.00;;;4.43;;
42334;SDS011;27986;42.700;24.178;2022-10-31T05:54:35;14.18;;;5.18;;
42334;SDS011;27986;42.700;24.178;2022-10-31T05:57:00;9.75;;;3.97;;
42334;SDS011;27986;42.700;24.178;2022-10-31T05:59:26;14.20;;;6.68;;
42334;SDS011;27986;42.700;24.178;2022-10-31T06:01:51;11.30;;;5.45;;
42334;SDS011;27986;42.700;24.178;2022-10-31T06:04:17;11.63;;;4.63;;
42334;SDS011;27986;42.700;24.178;2022-10-31T06:06:42;11.40;;;4.28;;
42334;SDS011;27986;42.700;24.178;2022-10-31T06:09:08;8.65;;;3.80;;
42334;SDS011;27986;42.700;24.178;2022-10-31T06:11:34;14.60;;;2.90;;
42334;SDS011;27986;42.700;24.178;2022-10-31T06:14:00;10.80;;;2.97;;
42334;SDS011;27986;42.700;24.178;2022-10-31T06:16:26;9.05;;;2.50;;
42334;SDS011;27986;42.700;24.178;2022-10-31T06:18:51;4.47;;;1.85;;
42334;SDS011;27986;42.700;24.178;2022-10-31T06:21:17;4.35;;;1.85;;
42334;SDS011;27986;42.700;24.178;2022-10-31T06:23:42;5.43;;;2.05;;
42334;SDS011;27986;42.700;24.178;2022-10-31T06:26:08;11.20;;;4.35;;
42334;SDS011;27986;42.700;24.178;2022-10-31T06:28:33;5.35;;;2.55;;
42334;SDS011;27986;42.700;24.178;2022-10-31T06:30:59;4.53;;;1.80;;
42334;SDS011;27986;42.700;24.178;2022-10-31T06:33:25;5.38;;;2.45;;
42334;SDS011;27986;42.700;24.178;2022-10-31T06:35:50;4.20;;;2.47;;
42334;SDS011;27986;42.700;24.178;2022-10-31T06:38:15;6.90;;;2.03;;
42334;SDS011;27986;42.700;24.178;2022-10-31T06:40:41;4.97;;;1.58;;
42334;SDS011;27986;42.700;24.178;2022-10-31T06:43:06;3.28;;;1.58;;
42334;SDS011;27986;42.700;24.178;2022-10-31T06:45:32;8.00;;;2.20;;
42334;SDS011;27986;42.700;24.178;2022-10-31T06:47:57;4.85;;;1.90;;
42334;SDS011;27986;42.700;24.178;2022-10-31T06:50:24;9.15;;;2.13;;
42334;SDS011;27986;42.700;24.178;2022-10-31T06:52:53;8.70;;;2.60;;
42334;SDS011;27986;42.700;24.178;2022-10-31T06:55:20;5.40;;;1.83;;
42334;SDS011;27986;42.700;24.178;2022-10-31T06:57:54;8.75;;;2.55;;
42334;SDS011;27986;42.700;24.178;2022-10-31T07:00:21;6.57;;;2.00;;
42334;SDS011;27986;42.700;24.178;2022-10-31T07:02:56;4.75;;;2.08;;
42334;SDS011;27986;42.700;24.178;2022-10-31T07:05:34;5.47;;;2.70;;
42334;SDS011;27986;42.700;24.178;2022-10-31T07:08:00;5.68;;;1.65;;
42334;SDS011;27986;42.700;24.178;2022-10-31T07:10:30;93.38;;;46.75;;
42334;SDS011;27986;42.700;24.178;2022-10-31T07:12:59;21.02;;;9.45;;
42334;SDS011;27986;42.700;24.178;2022-10-31T07:15:27;3.35;;;2.00;;
42334;SDS011;27986;42.700;24.178;2022-10-31T07:17:54;3.80;;;1.63;;
42334;SDS011;27986;42.700;24.178;2022-10-31T07:20:25;18.92;;;8.18;;
42334;SDS011;27986;42.700;24.178;2022-10-31T07:22:51;7.25;;;3.95;;
42334;SDS011;27986;42.700;24.178;2022-10-31T07:25:16;4.28;;;1.55;;
42334;SDS011;27986;42.700;24.178;2022-10-31T07:27:42;22.88;;;10.30;;
42334;SDS011;27986;42.700;24.178;2022-10-31T07:30:08;7.93;;;4.60;;
42334;SDS011;27986;42.700;24.178;2022-10-31T07:32:43;56.08;;;28.75;;
42334;SDS011;27986;42.700;24.178;2022-10-31T07:35:14;48.60;;;23.70;;
42334;SDS011;27986;42.700;24.178;2022-10-31T07:37:41;44.10;;;20.20;;
42334;SDS011;27986;42.700;24.178;2022-10-31T07:40:07;61.53;;;31.58;;
42334;SDS011;27986;42.700;24.178;2022-10-31T07:42:40;25.98;;;13.95;;
42334;SDS011;27986;42.700;24.178;2022-10-31T07:45:08;53.72;;;22.52;;
42334;SDS011;27986;42.700;24.178;2022-10-31T07:47:42;31.73;;;14.43;;
42334;SDS011;27986;42.700;24.178;2022-10-31T07:50:12;3.38;;;1.60;;
42334;SDS011;27986;42.700;24.178;2022-10-31T07:52:40;4.38;;;2.30;;
42334;SDS011;27986;42.700;24.178;2022-10-31T07:55:06;20.92;;;10.88;;
42334;SDS011;27986;42.700;24.178;2022-10-31T07:57:34;47.72;;;24.35;;
42334;SDS011;27986;42.700;24.178;2022-10-31T08:00:00;14.38;;;7.10;;
42334;SDS011;27986;42.700;24.178;2022-10-31T08:02:25;15.27;;;5.13;;
42334;SDS011;27986;42.700;24.178;2022-10-31T08:04:51;14.13;;;6.15;;
42334;SDS011;27986;42.700;24.178;2022-10-31T08:07:18;23.00;;;12.00;;
42334;SDS011;27986;42.700;24.178;2022-10-31T08:09:46;5.57;;;3.13;;
42334;SDS011;27986;42.700;24.178;2022-10-31T08:12:12;10.18;;;5.50;;
42334;SDS011;27986;42.700;24.178;2022-10-31T08:14:37;16.23;;;8.18;;
42334;SDS011;27986;42.700;24.178;2022-10-31T08:17:03;15.32;;;6.30;;
42334;SDS011;27986;42.700;24.178;2022-10-31T08:19:28;18.30;;;8.85;;
42334;SDS011;27986;42.700;24.178;2022-10-31T08:21:54;20.33;;;11.25;;
42334;SDS011;27986;42.700;24.178;2022-10-31T08:24:23;17.00;;;7.15;;
42334;SDS011;27986;42.700;24.178;2022-10-31T08:26:49;17.15;;;9.30;;
42334;SDS011;27986;42.700;24.178;2022-10-31T08:29:15;9.88;;;4.80;;
42334;SDS011;27986;42.700;24.178;2022-10-31T08:31:41;13.93;;;6.55;;
42334;SDS011;27986;42.700;24.178;2022-10-31T08:34:07;4.18;;;2.03;;
42334;SDS011;27986;42.700;24.178;2022-10-31T08:36:32;6.32;;;2.42;;
42334;SDS011;27986;42.700;24.178;2022-10-31T08:38:58;33.13;;;15.65;;
42334;SDS011;27986;42.700;24.178;2022-10-31T08:41:23;53.42;;;25.27;;
42334;SDS011;27986;42.700;24.178;2022-10-31T08:43:49;18.10;;;9.38;;
42334;SDS011;27986;42.700;24.178;2022-10-31T08:46:14;19.63;;;10.20;;
42334;SDS011;27986;42.700;24.178;2022-10-31T08:48:40;7.07;;;3.10;;
42334;SDS011;27986;42.700;24.178;2022-10-31T08:51:05;4.90;;;2.15;;
42334;SDS011;27986;42.700;24.178;2022-10-31T08:53:32;11.82;;;1.70;;
42334;SDS011;27986;42.700;24.178;2022-10-31T08:55:57;9.45;;;4.10;;
42334;SDS011;27986;42.700;24.178;2022-10-31T08:58:23;2.38;;;1.33;;
42334;SDS011;27986;42.700;24.178;2022-10-31T09:00:50;5.55;;;1.73;;
42334;SDS011;27986;42.700;24.178;2022-10-31T09:05:43;2.13;;;0.95;;
42334;SDS011;27986;42.700;24.178;2022-10-31T09:08:10;6.03;;;2.72;;
42334;SDS011;27986;42.700;24.178;2022-10-31T09:10:37;7.28;;;1.35;;
42334;SDS011;27986;42.700;24.178;2022-10-31T09:13:05;4.15;;;1.80;;
42334;SDS011;27986;42.700;24.178;2022-10-31T09:15:32;6.93;;;1.73;;
42334;SDS011;27986;42.700;24.178;2022-10-31T09:17:59;6.13;;;3.03;;
42334;SDS011;27986;42.700;24.178;2022-10-31T09:20:26;11.70;;;5.85;;
42334;SDS011;27986;42.700;24.178;2022-10-31T09:22:56;3.30;;;1.50;;
42334;SDS011;27986;42.700;24.178;2022-10-31T09:25:25;3.28;;;1.10;;
42334;SDS011;27986;42.700;24.178;2022-10-31T09:27:55;8.30;;;2.40;;
42334;SDS011;27986;42.700;24.178;2022-10-31T09:30:25;9.77;;;4.60;;
42334;SDS011;27986;42.700;24.178;2022-10-31T09:32:56;16.63;;;6.85;;
42334;SDS011;27986;42.700;24.178;2022-10-31T09:35:22;4.70;;;2.65;;
42334;SDS011;27986;42.700;24.178;2022-10-31T09:37:53;4.28;;;1.80;;
42334;SDS011;27986;42.700;24.178;2022-10-31T09:40:20;7.53;;;2.85;;
42334;SDS011;27986;42.700;24.178;2022-10-31T09:45:16;10.05;;;5.63;;
42334;SDS011;27986;42.700;24.178;2022-10-31T09:50:22;3.40;;;1.08;;
42334;SDS011;27986;42.700;24.178;2022-10-31T09:53:02;9.18;;;3.13;;
42334;SDS011;27986;42.700;24.178;2022-10-31T09:58:19;2.20;;;1.02;;
42334;SDS011;27986;42.700;24.178;2022-10-31T10:00:48;6.28;;;2.03;;
42334;SDS011;27986;42.700;24.178;2022-10-31T10:05:51;7.45;;;0.75;;
42334;SDS011;27986;42.700;24.178;2022-10-31T10:14:17;1.98;;;1.10;;
42334;SDS011;27986;42.700;24.178;2022-10-31T10:30:14;2.22;;;1.08;;
42334;SDS011;27986;42.700;24.178;2022-10-31T10:32:47;4.40;;;1.30;;
42334;SDS011;27986;42.700;24.178;2022-10-31T10:38:00;4.32;;;1.25;;
42334;SDS011;27986;42.700;24.178;2022-10-31T10:40:34;3.90;;;1.50;;
42334;SDS011;27986;42.700;24.178;2022-10-31T10:49:11;4.78;;;1.58;;
42334;SDS011;27986;42.700;24.178;2022-10-31T10:51:46;10.88;;;4.50;;
42334;SDS011;27986;42.700;24.178;2022-10-31T10:56:56;11.63;;;6.25;;
42334;SDS011;27986;42.700;24.178;2022-10-31T10:59:44;4.50;;;1.30;;
42334;SDS011;27986;42.700;24.178;2022-10-31T11:02:20;5.18;;;1.10;;
42334;SDS011;27986;42.700;24.178;2022-10-31T11:04:50;5.78;;;3.28;;
42334;SDS011;27986;42.700;24.178;2022-10-31T11:07:17;3.58;;;1.15;;
42334;SDS011;27986;42.700;24.178;2022-10-31T11:09:43;2.30;;;0.77;;
42334;SDS011;27986;42.700;24.178;2022-10-31T11:12:28;2.58;;;0.88;;
42334;SDS011;27986;42.700;24.178;2022-10-31T11:15:02;4.70;;;0.90;;
42334;SDS011;27986;42.700;24.178;2022-10-31T11:17:41;1.48;;;0.68;;
42334;SDS011;27986;42.700;24.178;2022-10-31T11:22:38;0.98;;;0.47;;
42334;SDS011;27986;42.700;24.178;2022-10-31T11:25:19;2.05;;;0.85;;
42334;SDS011;27986;42.700;24.178;2022-10-31T11:30:42;10.07;;;4.78;;
42334;SDS011;27986;42.700;24.178;2022-10-31T11:33:54;47.97;;;22.48;;
42334;SDS011;27986;42.700;24.178;2022-10-31T11:36:03;2.55;;;0.98;;
42334;SDS011;27986;42.700;24.178;2022-10-31T11:38:40;4.70;;;0.73;;
42334;SDS011;27986;42.700;24.178;2022-10-31T11:41:12;2.10;;;1.00;;
42334;SDS011;27986;42.700;24.178;2022-10-31T11:43:45;1.65;;;0.52;;
42334;SDS011;27986;42.700;24.178;2022-10-31T11:49:05;3.55;;;0.93;;
42334;SDS011;27986;42.700;24.178;2022-10-31T11:51:39;3.28;;;1.02;;
42334;SDS011;27986;42.700;24.178;2022-10-31T11:54:05;11.57;;;5.53;;
42334;SDS011;27986;42.700;24.178;2022-10-31T11:56:37;6.90;;;1.52;;
42334;SDS011;27986;42.700;24.178;2022-10-31T12:01:48;10.32;;;5.15;;
42334;SDS011;27986;42.700;24.178;2022-10-31T12:04:15;8.25;;;4.25;;
42334;SDS011;27986;42.700;24.178;2022-10-31T12:06:42;6.50;;;3.10;;
42334;SDS011;27986;42.700;24.178;2022-10-31T12:14:25;1.45;;;0.57;;
42334;SDS011;27986;42.700;24.178;2022-10-31T12:22:42;13.70;;;4.78;;
42334;SDS011;27986;42.700;24.178;2022-10-31T12:25:38;3.95;;;1.52;;
42334;SDS011;27986;42.700;24.178;2022-10-31T12:41:51;10.05;;;3.35;;
42334;SDS011;27986;42.700;24.178;2022-10-31T12:54:55;7.65;;;1.33;;
42334;SDS011;27986;42.700;24.178;2022-10-31T13:05:29;4.85;;;2.67;;
42334;SDS011;27986;42.700;24.178;2022-10-31T13:11:48;5.55;;;1.05;;
42334;SDS011;27986;42.700;24.178;2022-10-31T13:20:15;4.57;;;1.02;;
42334;SDS011;27986;42.700;24.178;2022-10-31T13:22:45;3.45;;;1.02;;
42334;SDS011;27986;42.700;24.178;2022-10-31T13:25:28;3.95;;;1.35;;
42334;SDS011;27986;42.700;24.178;2022-10-31T13:28:03;4.95;;;1.55;;
42334;SDS011;27986;42.700;24.178;2022-10-31T13:30:36;4.18;;;0.80;;
42334;SDS011;27986;42.700;24.178;2022-10-31T13:46:56;9.25;;;4.32;;
42334;SDS011;27986;42.700;24.178;2022-10-31T13:49:36;8.45;;;2.25;;
42334;SDS011;27986;42.700;24.178;2022-10-31T13:55:33;3.13;;;1.30;;
42334;SDS011;27986;42.700;24.178;2022-10-31T13:57:42;13.55;;;6.40;;
42334;SDS011;27986;42.700;24.178;2022-10-31T14:02:55;8.68;;;3.03;;
42334;SDS011;27986;42.700;24.178;2022-10-31T14:05:23;16.63;;;6.53;;
42334;SDS011;27986;42.700;24.178;2022-10-31T14:10:33;18.77;;;8.63;;
42334;SDS011;27986;42.700;24.178;2022-10-31T14:13:05;10.25;;;5.18;;
42334;SDS011;27986;42.700;24.178;2022-10-31T14:15:33;9.55;;;2.70;;
42334;SDS011;27986;42.700;24.178;2022-10-31T14:18:03;4.93;;;1.75;;
42334;SDS011;27986;42.700;24.178;2022-10-31T14:26:33;12.32;;;4.60;;
42334;SDS011;27986;42.700;24.178;2022-10-31T14:29:21;4.40;;;2.35;;
42334;SDS011;27986;42.700;24.178;2022-10-31T14:34:32;6.15;;;2.28;;
42334;SDS011;27986;42.700;24.178;2022-10-31T14:50:55;4.18;;;1.10;;
42334;SDS011;27986;42.700;24.178;2022-10-31T14:53:28;2.42;;;0.93;;
42334;SDS011;27986;42.700;24.178;2022-10-31T14:55:54;5.03;;;1.65;;
42334;SDS011;27986;42.700;24.178;2022-10-31T14:58:28;2.80;;;0.70;;
42334;SDS011;27986;42.700;24.178;2022-10-31T15:01:02;4.80;;;0.82;;
42334;SDS011;27986;42.700;24.178;2022-10-31T15:03:32;3.85;;;1.65;;
42334;SDS011;27986;42.700;24.178;2022-10-31T15:06:03;3.22;;;1.17;;
42334;SDS011;27986;42.700;24.178;2022-10-31T15:08:39;3.13;;;0.85;;
42334;SDS011;27986;42.700;24.178;2022-10-31T15:11:25;2.00;;;0.70;;
42334;SDS011;27986;42.700;24.178;2022-10-31T15:13:55;7.28;;;1.20;;
42334;SDS011;27986;42.700;24.178;2022-10-31T15:16:28;3.40;;;1.48;;
42334;SDS011;27986;42.700;24.178;2022-10-31T15:18:59;3.05;;;1.38;;
42334;SDS011;27986;42.700;24.178;2022-10-31T15:21:28;24.65;;;5.28;;
42334;SDS011;27986;42.700;24.178;2022-10-31T15:23:55;34.25;;;12.30;;
42334;SDS011;27986;42.700;24.178;2022-10-31T15:26:23;46.42;;;17.70;;
42334;SDS011;27986;42.700;24.178;2022-10-31T15:28:59;29.70;;;13.13;;
42334;SDS011;27986;42.700;24.178;2022-10-31T15:31:29;26.50;;;10.20;;
42334;SDS011;27986;42.700;24.178;2022-10-31T15:33:58;22.58;;;11.27;;
42334;SDS011;27986;42.700;24.178;2022-10-31T15:36:27;13.88;;;7.32;;
42334;SDS011;27986;42.700;24.178;2022-10-31T15:38:54;11.95;;;7.38;;
42334;SDS011;27986;42.700;24.178;2022-10-31T15:41:29;25.80;;;14.38;;
42334;SDS011;27986;42.700;24.178;2022-10-31T15:46:54;37.33;;;25.27;;
42334;SDS011;27986;42.700;24.178;2022-10-31T15:49:29;24.40;;;14.88;;
42334;SDS011;27986;42.700;24.178;2022-10-31T15:55:14;12.80;;;6.28;;
42334;SDS011;27986;42.700;24.178;2022-10-31T15:57:54;11.57;;;6.72;;
42334;SDS011;27986;42.700;24.178;2022-10-31T16:00:34;12.05;;;4.22;;
42334;SDS011;27986;42.700;24.178;2022-10-31T16:03:02;10.43;;;6.00;;
42334;SDS011;27986;42.700;24.178;2022-10-31T16:06:03;17.60;;;6.75;;
42334;SDS011;27986;42.700;24.178;2022-10-31T16:10:51;47.05;;;12.75;;
42334;SDS011;27986;42.700;24.178;2022-10-31T16:13:18;29.27;;;8.40;;
42334;SDS011;27986;42.700;24.178;2022-10-31T16:15:56;46.40;;;13.68;;
42334;SDS011;27986;42.700;24.178;2022-10-31T16:18:25;29.77;;;9.40;;
42334;SDS011;27986;42.700;24.178;2022-10-31T16:20:52;27.13;;;7.40;;
42334;SDS011;27986;42.700;24.178;2022-10-31T16:23:20;14.48;;;5.22;;
42334;SDS011;27986;42.700;24.178;2022-10-31T16:25:49;14.57;;;6.43;;
42334;SDS011;27986;42.700;24.178;2022-10-31T16:28:20;20.77;;;5.75;;
42334;SDS011;27986;42.700;24.178;2022-10-31T16:30:51;17.83;;;6.40;;
42334;SDS011;27986;42.700;24.178;2022-10-31T16:36:01;18.85;;;7.85;;
42334;SDS011;27986;42.700;24.178;2022-10-31T16:39:00;14.00;;;5.90;;
42334;SDS011;27986;42.700;24.178;2022-10-31T16:41:25;7.05;;;3.58;;
42334;SDS011;27986;42.700;24.178;2022-10-31T16:43:51;7.97;;;3.38;;
42334;SDS011;27986;42.700;24.178;2022-10-31T16:46:20;19.13;;;8.63;;
42334;SDS011;27986;42.700;24.178;2022-10-31T16:48:48;16.80;;;5.30;;
42334;SDS011;27986;42.700;24.178;2022-10-31T16:51:14;12.88;;;4.65;;
42334;SDS011;27986;42.700;24.178;2022-10-31T16:53:39;18.77;;;7.68;;
42334;SDS011;27986;42.700;24.178;2022-10-31T16:56:05;35.92;;;13.30;;
42334;SDS011;27986;42.700;24.178;2022-10-31T16:58:43;66.50;;;24.10;;
42334;SDS011;27986;42.700;24.178;2022-10-31T17:01:11;218.32;;;65.50;;
42334;SDS011;27986;42.700;24.178;2022-10-31T17:03:37;110.80;;;35.63;;
42334;SDS011;27986;42.700;24.178;2022-10-31T17:06:03;111.18;;;36.08;;
42334;SDS011;27986;42.700;24.178;2022-10-31T17:08:29;39.60;;;13.32;;
42334;SDS011;27986;42.700;24.178;2022-10-31T17:10:55;86.15;;;28.30;;
42334;SDS011;27986;42.700;24.178;2022-10-31T17:13:23;114.82;;;38.40;;
42334;SDS011;27986;42.700;24.178;2022-10-31T17:15:55;104.33;;;37.67;;
42334;SDS011;27986;42.700;24.178;2022-10-31T17:18:22;42.15;;;14.98;;
42334;SDS011;27986;42.700;24.178;2022-10-31T17:20:48;16.83;;;5.40;;
42334;SDS011;27986;42.700;24.178;2022-10-31T17:23:15;92.07;;;32.75;;
42334;SDS011;27986;42.700;24.178;2022-10-31T17:25:42;19.05;;;6.00;;
42334;SDS011;27986;42.700;24.178;2022-10-31T17:28:12;10.25;;;4.25;;
42334;SDS011;27986;42.700;24.178;2022-10-31T17:30:39;6.60;;;2.40;;
42334;SDS011;27986;42.700;24.178;2022-10-31T17:33:08;8.88;;;3.50;;
42334;SDS011;27986;42.700;24.178;2022-10-31T17:35:36;12.32;;;3.63;;
42334;SDS011;27986;42.700;24.178;2022-10-31T17:38:02;5.95;;;3.13;;
42334;SDS011;27986;42.700;24.178;2022-10-31T17:40:28;15.23;;;4.53;;
42334;SDS011;27986;42.700;24.178;2022-10-31T17:42:54;23.02;;;9.18;;
42334;SDS011;27986;42.700;24.178;2022-10-31T17:45:24;23.40;;;9.80;;
42334;SDS011;27986;42.700;24.178;2022-10-31T17:47:52;19.20;;;8.43;;
42334;SDS011;27986;42.700;24.178;2022-10-31T17:50:19;11.73;;;4.53;;
42334;SDS011;27986;42.700;24.178;2022-10-31T17:52:47;25.48;;;12.02;;
42334;SDS011;27986;42.700;24.178;2022-10-31T17:55:13;23.25;;;12.52;;
42334;SDS011;27986;42.700;24.178;2022-10-31T17:57:39;29.13;;;13.23;;
42334;SDS011;27986;42.700;24.178;2022-10-31T18:00:06;31.27;;;13.85;;
42334;SDS011;27986;42.700;24.178;2022-10-31T18:02:35;54.20;;;19.42;;